Helmsdale, United Kingdom
Current Conditions -  °F | °C
As of 4:50 AM on Saturday 20 Dec 2014 (Local Time) from EGQS Reporting Station
Scattered Clouds Scattered Clouds  
Wind Chill: 32°   Ceiling: Unl
Heat Index: 43°   Visibility: 6mi
Dew Point: 28°   Wind: 31mph
Humidity: 57%   Direction: 280°W
Pressure: 29.65"   Gusts: 45mph
Location:  58.12°N, 3.66°W
Report Text: EGQS 200450Z 28027G39KT 9999 SCT040 06/M02 Q1004 BLU
Loading
Personal Weather Stations






























Interactive Weather Map New forecast layout! Learn more

10-Day Weather Forecast

Advertisements
Track Severe Weather on mobile